createdAt,value
2019-05-20T00:01:23.151Z,4.40
2019-05-20T00:03:54.681Z,4.85
2019-05-20T00:06:26.198Z,4.97
2019-05-20T00:08:58.853Z,4.08
2019-05-20T00:11:30.444Z,4.50
2019-05-20T00:14:01.822Z,4.20
2019-05-20T00:16:33.381Z,4.75
2019-05-20T00:19:04.938Z,4.70
2019-05-20T00:21:36.319Z,4.45
2019-05-20T00:24:07.914Z,4.95
2019-05-20T00:26:39.640Z,4.87
2019-05-20T00:29:11.290Z,4.40
2019-05-20T00:31:42.741Z,5.62
2019-05-20T00:34:14.187Z,4.80
2019-05-20T00:36:45.706Z,4.45
2019-05-20T00:39:20.943Z,4.45
2019-05-20T00:41:52.516Z,4.00
2019-05-20T00:44:24.034Z,5.75
2019-05-20T04:31:06.517Z,10.25
2019-05-20T04:33:37.996Z,9.83
2019-05-20T04:36:09.471Z,8.50
2019-05-20T04:38:40.793Z,11.50
2019-05-20T04:41:12.219Z,10.95
2019-05-20T04:43:43.672Z,16.15
2019-05-20T04:46:15.021Z,11.38
2019-05-20T04:48:46.435Z,9.20
2019-05-20T04:51:36.755Z,12.65
2019-05-20T04:54:08.138Z,7.08
2019-05-20T04:56:39.484Z,9.53
2019-05-20T04:59:10.907Z,9.28
2019-05-20T05:01:42.161Z,8.95
2019-05-20T05:04:13.490Z,11.57
2019-05-20T05:06:44.907Z,12.85
2019-05-20T05:09:16.488Z,10.82
2019-05-20T05:11:47.916Z,10.18
2019-05-20T05:14:19.485Z,14.83
2019-05-20T05:16:50.866Z,10.25
2019-05-20T05:19:22.388Z,9.20
2019-05-20T05:21:53.847Z,15.38
2019-05-20T05:24:26.285Z,8.40
2019-05-20T05:26:57.886Z,11.25
2019-05-20T05:29:29.485Z,11.53
2019-05-20T05:32:00.929Z,13.25
2019-05-20T05:34:32.507Z,12.20
2019-05-20T05:37:03.874Z,12.50
2019-05-20T05:39:35.519Z,12.98
2019-05-20T05:42:09.571Z,12.37
2019-05-20T05:44:40.909Z,13.03
2019-05-20T05:47:12.187Z,13.45
2019-05-20T05:49:43.600Z,16.73
2019-05-20T05:52:15.037Z,14.47
2019-05-20T05:54:46.518Z,13.72
2019-05-20T05:57:17.887Z,17.73
2019-05-20T05:59:49.297Z,12.65
2019-05-20T06:02:22.398Z,14.45
2019-05-20T06:04:53.887Z,14.78
2019-05-20T06:07:26.446Z,17.52
2019-05-20T06:09:57.933Z,13.20
2019-05-20T06:12:29.326Z,12.45
2019-05-20T06:15:02.326Z,13.43
2019-05-20T06:17:33.770Z,13.03
2019-05-20T06:20:08.052Z,14.33
2019-05-20T06:22:39.721Z,12.35
2019-05-20T06:25:15.120Z,13.28
2019-05-20T06:27:46.742Z,13.85
2019-05-20T06:30:22.875Z,12.80
2019-05-20T06:32:54.183Z,14.95
2019-05-20T06:35:25.733Z,15.20
2019-05-20T06:37:58.735Z,11.68
2019-05-20T08:27:17.538Z,19.32
2019-05-20T08:29:48.971Z,14.63
2019-05-20T08:32:21.635Z,16.85
2019-05-20T08:34:53.040Z,15.95
2019-05-20T08:37:24.459Z,17.65
2019-05-20T08:39:56.080Z,19.75
2019-05-20T08:42:27.362Z,25.27
2019-05-20T08:44:58.857Z,26.42
2019-05-20T08:47:30.133Z,24.43
2019-05-20T08:50:02.474Z,23.55
2019-05-20T08:52:34.489Z,25.35
2019-05-20T08:55:06.519Z,23.47
2019-05-20T08:57:38.049Z,25.17
2019-05-20T09:00:23.208Z,22.93
2019-05-20T09:02:52.896Z,24.32
2019-05-20T09:05:27.847Z,23.40
2019-05-20T09:08:03.063Z,21.62
2019-05-20T09:10:30.892Z,21.95
2019-05-20T09:13:02.434Z,22.27
2019-05-20T09:15:33.839Z,26.07
2019-05-20T09:18:05.496Z,22.02
2019-05-20T09:20:36.847Z,21.50
2019-05-20T09:23:08.193Z,24.43
2019-05-20T09:25:39.834Z,24.10
2019-05-20T09:28:11.179Z,23.18
2019-05-20T09:30:43.219Z,22.00
2019-05-20T09:33:14.901Z,23.00
2019-05-20T09:35:46.556Z,26.52
2019-05-20T09:38:21.181Z,24.77
2019-05-20T09:40:52.288Z,27.48
2019-05-20T09:43:23.800Z,26.55
2019-05-20T09:46:06.652Z,29.52
2019-05-20T09:48:28.357Z,27.37
2019-05-20T09:50:59.850Z,28.07
2019-05-20T09:53:31.268Z,29.15
2019-05-20T09:56:02.999Z,27.13
2019-05-20T09:58:34.473Z,26.82
2019-05-20T10:01:05.968Z,27.42
2019-05-20T10:03:37.422Z,28.10
2019-05-20T10:06:08.922Z,26.77
2019-05-20T10:08:44.709Z,25.80
2019-05-20T10:11:13.779Z,28.50
2019-05-20T10:13:46.574Z,25.37
2019-05-20T10:16:17.886Z,26.97
2019-05-20T10:18:49.425Z,29.50
2019-05-20T10:21:20.787Z,30.57
2019-05-20T10:23:52.238Z,29.72
2019-05-20T10:26:23.829Z,27.55
2019-05-20T10:28:55.214Z,28.12
2019-05-20T10:31:26.687Z,28.65
2019-05-20T10:33:57.994Z,28.20
2019-05-20T10:36:29.441Z,27.82
2019-05-20T10:39:00.707Z,28.15
2019-05-20T10:41:33.776Z,27.07
2019-05-20T10:44:05.281Z,29.75
2019-05-20T10:46:36.788Z,28.75
2019-05-20T10:49:08.427Z,26.50
2019-05-20T10:51:39.702Z,24.35
2019-05-20T10:54:11.123Z,23.65
2019-05-20T10:56:42.607Z,26.73
2019-05-20T10:59:14.000Z,22.73
2019-05-20T11:01:45.405Z,24.52
2019-05-20T11:04:16.937Z,23.87
2019-05-20T11:06:48.302Z,27.02
2019-05-20T11:09:19.700Z,24.60
2019-05-20T11:11:51.176Z,27.15
2019-05-20T11:14:22.502Z,22.00
2019-05-20T11:16:54.055Z,24.75
2019-05-20T11:19:25.324Z,23.45
2019-05-20T11:21:56.728Z,22.05
2019-05-20T11:24:28.048Z,20.30
2019-05-20T11:27:00.648Z,22.98
2019-05-20T11:29:31.966Z,23.70
2019-05-20T11:32:03.323Z,23.83
2019-05-20T11:34:36.954Z,24.95
2019-05-20T11:37:08.533Z,23.60
2019-05-20T11:39:40.033Z,22.98
2019-05-20T11:42:11.701Z,23.90
2019-05-20T11:44:43.170Z,21.57
2019-05-20T11:47:14.614Z,26.05
2019-05-20T11:49:47.848Z,24.92
2019-05-20T11:52:19.360Z,22.48
2019-05-20T11:54:50.677Z,25.45
2019-05-20T11:57:21.993Z,23.70
2019-05-20T11:59:53.372Z,25.60
2019-05-20T12:02:24.652Z,24.50
2019-05-20T12:04:57.028Z,22.20
2019-05-20T12:07:28.349Z,23.10
2019-05-20T12:09:59.628Z,23.07
2019-05-20T12:12:30.970Z,23.57
2019-05-20T12:15:03.302Z,26.82
2019-05-20T12:17:35.499Z,27.80
2019-05-20T12:20:12.345Z,24.55
2019-05-20T12:22:43.836Z,29.12
2019-05-20T12:25:15.484Z,30.40
2019-05-20T12:27:46.718Z,25.62
2019-05-20T12:30:19.305Z,26.52
2019-05-20T12:32:50.651Z,25.17
2019-05-20T12:35:22.064Z,25.12
2019-05-20T12:37:54.645Z,25.15
2019-05-20T12:40:26.096Z,24.12
2019-05-20T12:42:57.435Z,25.65
2019-05-20T12:45:28.798Z,25.48
2019-05-20T12:48:00.243Z,20.62
2019-05-20T12:50:31.605Z,21.42
2019-05-20T12:53:03.075Z,20.72
2019-05-20T12:55:34.484Z,21.97
2019-05-20T12:58:05.931Z,21.23
2019-05-20T13:00:40.731Z,19.37
2019-05-20T13:03:12.161Z,21.00
2019-05-20T13:05:43.502Z,18.20
2019-05-20T13:08:14.900Z,18.98
2019-05-20T13:10:46.279Z,18.23
2019-05-20T13:13:18.594Z,16.42
2019-05-20T13:15:49.924Z,19.00
2019-05-20T13:18:21.190Z,18.15
2019-05-20T13:20:52.507Z,16.20
2019-05-20T13:23:23.867Z,14.68
2019-05-20T13:25:55.180Z,13.88
2019-05-20T13:28:26.678Z,13.93
2019-05-20T13:30:57.976Z,12.70
2019-05-20T13:33:29.391Z,11.93
2019-05-20T13:36:00.669Z,13.45
2019-05-20T13:38:31.971Z,10.88
2019-05-20T13:41:03.474Z,12.30
2019-05-20T13:43:34.809Z,11.83
2019-05-20T13:46:06.191Z,11.30
2019-05-20T13:48:37.540Z,12.55
2019-05-20T13:51:09.026Z,11.65
2019-05-20T13:53:40.446Z,11.55
2019-05-20T13:56:11.952Z,11.53
2019-05-20T13:58:43.687Z,11.25
2019-05-20T14:01:15.669Z,10.72
2019-05-20T14:03:47.203Z,11.68
2019-05-20T14:06:18.865Z,11.93
2019-05-20T14:08:50.308Z,10.48
2019-05-20T14:11:33.895Z,10.40
2019-05-20T14:13:59.100Z,11.93
2019-05-20T14:16:30.854Z,9.78
2019-05-20T14:19:02.378Z,8.43
2019-05-20T14:21:34.757Z,8.93
2019-05-20T14:24:06.435Z,10.72
2019-05-20T14:26:37.961Z,8.78
2019-05-20T14:29:09.257Z,8.38
2019-05-20T14:31:40.648Z,8.55
2019-05-20T14:34:12.081Z,10.80
2019-05-20T14:36:43.503Z,10.32
2019-05-20T14:39:14.994Z,9.55
2019-05-20T14:41:47.115Z,8.90
2019-05-20T14:44:27.867Z,9.15
2019-05-20T14:46:59.316Z,8.23
2019-05-20T14:49:30.746Z,8.45
2019-05-20T14:52:02.099Z,9.30
2019-05-20T14:54:33.461Z,10.05
2019-05-20T14:57:04.831Z,14.53
2019-05-20T14:59:36.169Z,9.48
2019-05-20T15:02:07.434Z,10.75
2019-05-20T15:04:39.280Z,14.35
2019-05-20T15:07:10.625Z,14.33
2019-05-20T15:09:42.002Z,14.45
2019-05-20T15:12:13.343Z,15.35
2019-05-20T15:14:44.817Z,17.17
2019-05-20T15:17:16.279Z,16.48
2019-05-20T15:19:47.585Z,16.77
2019-05-20T15:22:19.084Z,16.75
2019-05-20T15:24:50.355Z,16.70
2019-05-20T15:27:21.738Z,18.95
2019-05-20T15:29:53.105Z,18.75
2019-05-20T15:32:24.514Z,18.12
2019-05-20T15:34:55.964Z,21.45
2019-05-20T15:37:27.307Z,18.40
2019-05-20T15:39:58.960Z,17.73
2019-05-20T15:42:31.605Z,18.45
2019-05-20T15:45:08.192Z,18.10
2019-05-20T15:47:39.641Z,77.22
2019-05-20T15:50:11.274Z,18.60
2019-05-20T15:52:43.112Z,16.12
2019-05-20T15:55:14.790Z,16.85
2019-05-20T15:57:46.208Z,17.45
2019-05-20T16:00:19.785Z,29.55
2019-05-20T16:02:51.264Z,25.70
2019-05-20T16:05:22.609Z,18.12
2019-05-20T16:07:54.029Z,23.27
2019-05-20T16:10:31.599Z,38.48
2019-05-20T16:13:03.033Z,20.08
2019-05-20T16:15:34.487Z,63.45
2019-05-20T16:18:06.095Z,21.97
2019-05-20T16:20:37.590Z,24.90
2019-05-20T16:23:08.960Z,24.45
2019-05-20T16:25:40.426Z,24.95
2019-05-20T16:28:11.795Z,23.05
2019-05-20T16:30:43.342Z,22.45
2019-05-20T16:33:14.715Z,23.42
2019-05-20T16:35:46.230Z,31.37
2019-05-20T16:38:17.679Z,32.75
2019-05-20T16:40:49.071Z,32.98
2019-05-20T16:43:20.535Z,33.45
2019-05-20T16:45:51.905Z,41.70
2019-05-20T16:48:23.305Z,36.88
2019-05-20T16:50:54.575Z,49.65
2019-05-20T16:53:25.883Z,37.55
2019-05-20T16:55:57.171Z,38.55
2019-05-20T16:58:28.755Z,39.42
2019-05-20T17:01:00.884Z,35.75
2019-05-20T17:03:32.476Z,37.13
2019-05-20T17:06:03.936Z,38.55
2019-05-20T17:08:36.419Z,40.67
2019-05-20T17:11:07.808Z,37.93
2019-05-20T17:13:39.183Z,36.45
2019-05-20T17:16:10.823Z,37.53
2019-05-20T17:18:42.165Z,36.98
2019-05-20T17:21:13.657Z,36.25
2019-05-20T17:23:45.247Z,37.20
2019-05-20T17:26:16.725Z,35.38
2019-05-20T17:28:48.166Z,36.65
2019-05-20T17:31:19.645Z,36.40
2019-05-20T17:34:06.135Z,32.48
2019-05-20T17:36:37.624Z,38.45
2019-05-20T17:39:09.098Z,41.85
2019-05-20T17:41:40.596Z,39.27
2019-05-20T17:44:11.959Z,41.15
2019-05-20T17:46:43.372Z,40.63
2019-05-20T17:49:15.805Z,44.60
2019-05-20T17:51:47.443Z,44.45
2019-05-20T17:54:18.976Z,44.83
2019-05-20T17:56:50.331Z,42.98
2019-05-20T17:59:21.742Z,43.45
2019-05-20T18:01:53.078Z,44.60
2019-05-20T18:04:24.460Z,45.45
2019-05-20T18:06:55.769Z,44.20
2019-05-20T18:09:28.900Z,46.00
2019-05-20T18:12:00.381Z,43.65
2019-05-20T18:14:31.717Z,43.38
2019-05-20T18:17:03.183Z,42.65
2019-05-20T18:19:35.820Z,47.80
2019-05-20T18:22:13.590Z,44.83
2019-05-20T18:24:46.720Z,45.38
2019-05-20T18:27:18.184Z,49.05
2019-05-20T18:29:49.557Z,47.65
2019-05-20T18:32:22.717Z,49.13
2019-05-20T18:34:54.171Z,47.58
2019-05-20T18:37:25.989Z,54.98
2019-05-20T18:40:12.731Z,51.70
2019-05-20T18:42:32.299Z,50.73
2019-05-20T18:45:06.527Z,50.25
2019-05-20T18:47:44.194Z,53.48
2019-05-20T18:50:15.870Z,48.95
2019-05-20T18:52:47.600Z,50.17
2019-05-20T18:55:19.042Z,48.83
2019-05-20T18:57:50.449Z,53.30
2019-05-20T19:00:22.947Z,52.65
2019-05-20T19:02:54.401Z,53.87
2019-05-20T19:05:26.114Z,57.95
2019-05-20T19:07:57.457Z,54.08
2019-05-20T19:10:29.138Z,52.60
2019-05-20T19:13:00.704Z,49.58
2019-05-20T19:15:32.201Z,47.85
2019-05-20T19:18:03.689Z,48.23
2019-05-20T19:20:36.126Z,45.83
2019-05-20T19:23:07.491Z,45.83
2019-05-20T19:25:38.836Z,46.33
2019-05-20T19:28:10.234Z,48.48
2019-05-20T19:30:43.023Z,46.33
2019-05-20T19:33:15.836Z,50.23
2019-05-20T19:35:47.292Z,47.40
2019-05-20T19:38:18.824Z,49.40
2019-05-20T19:40:51.884Z,47.95
2019-05-20T19:43:24.522Z,47.23
2019-05-20T19:45:55.874Z,44.15
2019-05-20T19:48:27.341Z,45.60
2019-05-20T19:50:58.809Z,44.53
2019-05-20T19:53:30.267Z,45.50
2019-05-20T19:56:01.630Z,45.67
2019-05-20T19:58:34.551Z,44.80
2019-05-20T20:01:06.828Z,43.65
2019-05-20T20:03:56.728Z,47.25
2019-05-20T20:06:28.692Z,46.85
2019-05-20T20:09:02.098Z,43.38
2019-05-20T20:11:35.368Z,45.92
2019-05-20T20:14:10.074Z,43.95
2019-05-20T20:16:41.499Z,45.20
2019-05-20T20:19:14.004Z,47.73
2019-05-20T20:21:45.414Z,45.10
2019-05-20T20:24:16.693Z,46.95
2019-05-20T20:26:48.395Z,48.23
2019-05-20T20:29:29.998Z,42.60
2019-05-20T20:32:01.697Z,43.02
2019-05-20T20:34:33.043Z,45.15
2019-05-20T20:37:04.474Z,41.98
2019-05-20T20:39:35.740Z,44.73
2019-05-20T20:42:07.186Z,44.88
2019-05-20T20:44:38.615Z,43.10
2019-05-20T20:47:10.266Z,42.13
2019-05-20T20:49:42.129Z,45.48
2019-05-20T20:52:13.872Z,45.05
2019-05-20T20:54:45.383Z,43.08
2019-05-20T20:57:16.717Z,45.25
2019-05-20T20:59:50.344Z,44.05
2019-05-20T21:02:21.837Z,43.55
2019-05-20T21:04:53.215Z,43.98
2019-05-20T21:07:24.567Z,44.48
2019-05-20T21:09:55.884Z,44.30
2019-05-20T21:12:27.220Z,46.35
2019-05-20T21:14:58.512Z,42.83
2019-05-20T21:17:29.906Z,41.50
2019-05-20T21:20:01.297Z,46.63
2019-05-20T21:22:32.890Z,45.33
2019-05-20T21:25:04.981Z,47.80
2019-05-20T21:27:36.439Z,44.55
2019-05-20T21:30:09.155Z,45.67
2019-05-20T21:32:40.689Z,46.65
2019-05-20T21:35:12.177Z,43.28
2019-05-20T21:37:43.492Z,44.27
2019-05-20T21:40:14.898Z,43.78
2019-05-20T21:42:46.192Z,42.33
2019-05-20T21:45:17.528Z,41.02
2019-05-20T21:47:48.861Z,42.45
2019-05-20T21:50:20.170Z,42.43
2019-05-20T21:52:51.441Z,42.50
2019-05-20T21:55:23.487Z,44.53
2019-05-20T21:57:54.743Z,41.88
2019-05-20T22:00:27.830Z,40.98
2019-05-20T22:03:00.034Z,41.08
2019-05-20T22:05:31.500Z,42.25
2019-05-20T22:08:04.244Z,39.90
2019-05-20T22:10:35.927Z,45.70
2019-05-20T22:13:07.254Z,44.90
2019-05-20T22:15:38.678Z,42.73
2019-05-20T22:18:10.001Z,41.08
2019-05-20T22:20:41.450Z,42.85
2019-05-20T22:23:15.361Z,41.05
2019-05-20T22:25:48.302Z,40.88
2019-05-20T22:28:19.611Z,42.40
2019-05-20T22:30:50.892Z,41.45
2019-05-20T22:33:22.203Z,42.53
2019-05-20T22:35:53.471Z,40.95
2019-05-20T22:38:25.887Z,38.88
2019-05-20T22:40:57.212Z,44.65
2019-05-20T22:43:28.552Z,41.20
2019-05-20T22:45:59.930Z,40.88
2019-05-20T22:48:31.284Z,42.03
2019-05-20T22:51:02.643Z,44.93
2019-05-20T22:53:34.072Z,41.42
2019-05-20T22:56:05.371Z,40.55
2019-05-20T22:58:38.692Z,41.70
2019-05-20T23:01:09.737Z,45.00
2019-05-20T23:03:54.348Z,41.15
2019-05-20T23:06:14.163Z,40.33
2019-05-20T23:08:45.543Z,40.40
2019-05-20T23:11:16.842Z,42.00
2019-05-20T23:13:48.415Z,37.85
2019-05-20T23:16:19.818Z,43.13
2019-05-20T23:18:51.088Z,41.63
2019-05-20T23:21:22.401Z,38.63
2019-05-20T23:23:53.806Z,37.73
2019-05-20T23:26:25.107Z,38.78
2019-05-20T23:28:56.427Z,40.33
2019-05-20T23:31:27.763Z,36.70
2019-05-20T23:34:11.779Z,38.67
2019-05-20T23:36:32.131Z,37.00
2019-05-20T23:39:05.102Z,37.10
2019-05-20T23:41:36.446Z,35.55
2019-05-20T23:44:07.970Z,36.48
2019-05-20T23:46:39.291Z,36.15
2019-05-20T23:49:10.706Z,34.45
2019-05-20T23:51:42.086Z,34.75
2019-05-20T23:54:13.361Z,34.33
2019-05-20T23:56:44.660Z,33.40
2019-05-20T23:59:15.981Z,32.63
